createdAt,value
2023-08-30T00:02:32.070Z,94499.19
2023-08-30T00:07:34.241Z,94501.44
2023-08-30T00:12:36.164Z,94493.81
2023-08-30T00:17:38.584Z,94494.03
2023-08-30T00:22:40.975Z,94497.03
2023-08-30T00:27:43.234Z,94503.22
2023-08-30T00:32:46.832Z,94499.13
2023-08-30T00:37:49.312Z,94503.88
2023-08-30T00:42:51.687Z,94498.56
2023-08-30T00:47:54.903Z,94495.88
2023-08-30T00:52:57.035Z,94488.44
2023-08-30T00:57:59.133Z,94490.47
2023-08-30T01:03:01.715Z,94500.34
2023-08-30T01:08:04.249Z,94491.25
2023-08-30T01:13:10.508Z,94493.97
2023-08-30T01:18:13.898Z,94502.03
2023-08-30T01:23:41.620Z,94497.31
2023-08-30T01:28:45.310Z,94498.56
2023-08-30T01:33:47.604Z,94483.50
2023-08-30T01:38:50.645Z,94480.81
2023-08-30T01:43:54.084Z,94480.34
2023-08-30T01:48:57.320Z,94481.69
2023-08-30T01:53:59.286Z,94479.13
2023-08-30T01:59:01.525Z,94485.34
2023-08-30T02:04:03.761Z,94486.13
2023-08-30T02:09:23.841Z,94492.34
2023-08-30T02:14:27.875Z,94490.88
2023-08-30T02:19:30.076Z,94491.34
2023-08-30T02:24:32.217Z,94484.25
2023-08-30T02:29:34.489Z,94476.63
2023-08-30T02:34:37.102Z,94477.88
2023-08-30T02:39:39.226Z,94475.97
2023-08-30T02:44:42.287Z,94480.09
2023-08-30T02:49:44.566Z,94486.28
2023-08-30T02:54:46.785Z,94495.28
2023-08-30T02:59:48.869Z,94479.31
2023-08-30T03:04:51.219Z,94494.38
2023-08-30T03:09:54.357Z,94485.34
2023-08-30T03:14:56.756Z,94485.03
2023-08-30T03:19:59.550Z,94476.97
2023-08-30T03:25:04.484Z,94473.47
2023-08-30T03:30:07.745Z,94468.09
2023-08-30T03:35:11.023Z,94472.81
2023-08-30T03:40:13.414Z,94468.88
2023-08-30T03:45:15.591Z,94468.88
2023-08-30T03:50:17.957Z,94470.78
2023-08-30T03:55:20.314Z,94476.31
2023-08-30T04:00:22.453Z,94474.56
2023-08-30T04:05:28.183Z,94474.56
2023-08-30T04:10:39.454Z,94470.25
2023-08-30T04:15:41.683Z,94474.56
2023-08-30T04:20:46.592Z,94477.25
2023-08-30T04:25:48.736Z,94474.25
2023-08-30T04:30:54.991Z,94477.56
2023-08-30T04:35:57.178Z,94484.84
2023-08-30T04:41:00.907Z,94486.75
2023-08-30T04:46:08.261Z,94482.94
2023-08-30T04:51:10.791Z,94481.72
2023-08-30T04:56:14.263Z,94482.81
2023-08-30T05:01:17.160Z,94488.22
2023-08-30T05:06:23.499Z,94483.16
2023-08-30T05:11:25.710Z,94493.28
2023-08-30T05:16:28.064Z,94486.50
2023-08-30T05:21:30.800Z,94477.19
2023-08-30T05:26:32.876Z,94484.03
2023-08-30T05:31:35.326Z,94494.34
2023-08-30T05:36:57.928Z,94495.13
2023-08-30T05:42:11.518Z,94493.56
2023-08-30T05:47:16.218Z,94485.81
2023-08-30T05:52:19.395Z,94485.69
2023-08-30T05:57:23.517Z,94491.53
2023-08-30T06:02:25.828Z,94492.81
2023-08-30T06:07:27.997Z,94502.13
2023-08-30T06:12:30.083Z,94497.72
2023-08-30T06:17:32.516Z,94505.72
2023-08-30T06:22:35.734Z,94504.59
2023-08-30T06:27:44.648Z,94514.59
2023-08-30T06:32:46.770Z,94505.72
2023-08-30T06:37:48.773Z,94504.66
2023-08-30T06:42:50.844Z,94494.28
2023-08-30T06:47:56.025Z,94500.78
2023-08-30T06:52:58.486Z,94504.47
2023-08-30T06:58:00.935Z,94497.69
2023-08-30T07:03:03.214Z,94505.78
2023-08-30T07:08:05.517Z,94500.84
2023-08-30T07:13:11.697Z,94494.00
2023-08-30T07:18:14.179Z,94490.88
2023-08-30T07:23:16.743Z,94499.41
2023-08-30T07:28:19.069Z,94500.28
2023-08-30T07:33:21.369Z,94496.44
2023-08-30T07:38:23.862Z,94504.00
2023-08-30T07:43:26.487Z,94501.19
2023-08-30T07:48:28.566Z,94514.78
2023-08-30T07:53:31.014Z,94519.72
2023-08-30T07:58:33.177Z,94514.03
2023-08-30T08:03:35.360Z,94517.84
2023-08-30T08:08:37.596Z,94524.34
2023-08-30T08:13:40.135Z,94527.75
2023-08-30T08:18:42.419Z,94531.50
2023-08-30T08:23:44.726Z,94535.44
2023-08-30T08:28:47.051Z,94528.78
2023-08-30T08:33:54.183Z,94518.13
2023-08-30T08:38:56.323Z,94527.94
2023-08-30T08:43:59.370Z,94526.63
2023-08-30T08:49:06.169Z,94521.00
2023-08-30T08:54:10.365Z,94522.25
2023-08-30T08:59:12.692Z,94520.41
2023-08-30T09:04:14.771Z,94512.09
2023-08-30T09:09:16.909Z,94509.63
2023-08-30T09:14:20.091Z,94505.69
2023-08-30T09:19:23.208Z,94501.53
2023-08-30T09:24:26.083Z,94497.97
2023-08-30T09:29:28.838Z,94501.78
2023-08-30T09:34:31.030Z,94498.19
2023-08-30T09:39:34.506Z,94496.19
2023-08-30T09:44:36.934Z,94498.44
2023-08-30T09:49:49.214Z,94493.22
2023-08-30T09:54:52.503Z,94487.81
2023-08-30T09:59:55.816Z,94490.97
2023-08-30T10:04:58.290Z,94477.34
2023-08-30T10:10:09.759Z,94465.09
2023-08-30T10:15:12.581Z,94460.06
2023-08-30T10:20:15.231Z,94455.34
2023-08-30T10:25:21.789Z,94455.94
2023-08-30T10:30:24.784Z,94456.41
2023-08-30T10:35:27.091Z,94457.81
2023-08-30T10:40:29.394Z,94454.53
2023-08-30T10:45:31.879Z,94467.31
2023-08-30T10:50:35.188Z,94460.13
2023-08-30T10:55:37.734Z,94446.84
2023-08-30T11:00:42.206Z,94453.47
2023-08-30T11:05:44.319Z,94440.66
2023-08-30T11:10:47.305Z,94450.44
2023-08-30T11:15:51.820Z,94450.34
2023-08-30T11:21:03.849Z,94443.63
2023-08-30T11:26:06.269Z,94440.59
2023-08-30T11:31:08.842Z,94429.88
2023-08-30T11:36:11.011Z,94433.34
2023-08-30T11:41:13.608Z,94434.13
2023-08-30T11:46:16.243Z,94429.53
2023-08-30T11:51:19.772Z,94433.28
2023-08-30T11:56:22.021Z,94432.97
2023-08-30T12:01:24.343Z,94427.22
2023-08-30T12:06:26.759Z,94428.91
2023-08-30T12:11:33.050Z,94429.38
2023-08-30T12:16:35.318Z,94420.16
2023-08-30T12:21:44.213Z,94415.19
2023-08-30T12:26:46.334Z,94413.72
2023-08-30T12:31:48.597Z,94406.22
2023-08-30T12:36:50.624Z,94404.50
2023-08-30T12:41:52.868Z,94401.69
2023-08-30T12:46:55.024Z,94395.63
2023-08-30T12:51:57.009Z,94415.88
2023-08-30T12:56:59.246Z,94403.03
2023-08-30T13:02:01.694Z,94393.44
2023-08-30T13:07:04.022Z,94399.66
2023-08-30T13:12:06.926Z,94401.91
2023-08-30T13:17:10.644Z,94408.19
2023-08-30T13:22:12.799Z,94406.75
2023-08-30T13:27:14.874Z,94405.94
2023-08-30T13:32:17.475Z,94400.56
2023-08-30T13:37:19.672Z,94405.22
2023-08-30T13:42:22.790Z,94411.66
2023-08-30T13:47:25.083Z,94411.22
2023-08-30T13:52:27.515Z,94412.91
2023-08-30T13:57:29.702Z,94421.91
2023-08-30T14:02:31.621Z,94416.72
2023-08-30T14:07:33.594Z,94422.91
2023-08-30T14:12:35.891Z,94420.09
2023-08-30T14:17:37.875Z,94420.22
2023-08-30T14:22:40.308Z,94411.00
2023-08-30T14:27:42.434Z,94412.91
2023-08-30T14:32:44.552Z,94414.47
2023-08-30T14:37:46.667Z,94415.50
2023-08-30T14:42:48.935Z,94420.00
2023-08-30T14:47:51.049Z,94416.84
2023-08-30T14:52:56.248Z,94430.59
2023-08-30T14:57:58.403Z,94421.38
2023-08-30T15:03:00.569Z,94423.63
2023-08-30T15:08:03.644Z,94421.72
2023-08-30T15:13:06.286Z,94422.63
2023-08-30T15:18:09.877Z,94418.69
2023-08-30T15:23:18.300Z,94417.09
2023-08-30T15:28:20.529Z,94417.44
2023-08-30T15:33:22.741Z,94427.13
2023-08-30T15:38:24.911Z,94423.97
2023-08-30T15:43:27.323Z,94422.63
2023-08-30T15:48:29.317Z,94420.78
2023-08-30T15:53:31.490Z,94429.03
2023-08-30T15:58:33.764Z,94425.09
2023-08-30T16:03:38.333Z,94432.41
2023-08-30T16:08:40.706Z,94434.75
2023-08-30T16:13:42.882Z,94429.69
2023-08-30T16:18:45.180Z,94432.63
2023-08-30T16:23:47.602Z,94428.25
2023-08-30T16:28:49.651Z,94431.03
2023-08-30T16:33:51.806Z,94429.81
2023-08-30T16:38:53.899Z,94433.28
2023-08-30T16:43:56.134Z,94434.88
2023-08-30T16:48:58.737Z,94437.44
2023-08-30T16:54:01.011Z,94437.78
2023-08-30T16:59:03.352Z,94435.09
2023-08-30T17:04:05.715Z,94443.50
2023-08-30T17:09:07.866Z,94443.53
2023-08-30T17:14:12.586Z,94448.34
2023-08-30T17:19:14.890Z,94451.06
2023-08-30T17:24:17.146Z,94448.81
2023-08-30T17:29:19.710Z,94453.88
2023-08-30T17:34:21.848Z,94457.81
2023-08-30T17:39:25.487Z,94462.41
2023-08-30T17:44:27.739Z,94458.63
2023-08-30T17:49:29.857Z,94459.72
2023-08-30T17:54:33.646Z,94462.41
2023-08-30T17:59:36.555Z,94462.09
2023-08-30T18:04:40.199Z,94472.91
2023-08-30T18:09:42.407Z,94476.25
2023-08-30T18:14:48.337Z,94478.94
2023-08-30T18:19:50.656Z,94485.13
2023-08-30T18:24:52.734Z,94482.75
2023-08-30T18:29:54.961Z,94484.34
2023-08-30T18:34:57.097Z,94490.75
2023-08-30T18:40:00.205Z,94489.16
2023-08-30T18:45:02.732Z,94495.81
2023-08-30T18:50:05.254Z,94500.75
2023-08-30T18:55:08.108Z,94510.31
2023-08-30T19:00:11.964Z,94505.25
2023-08-30T19:05:14.053Z,94513.22
2023-08-30T19:10:16.108Z,94520.84
2023-08-30T19:15:18.243Z,94526.03
2023-08-30T19:20:20.295Z,94525.47
2023-08-30T19:25:22.476Z,94527.72
2023-08-30T19:30:27.681Z,94538.97
2023-08-30T19:35:30.016Z,94531.44
2023-08-30T19:40:32.126Z,94538.53
2023-08-30T19:45:34.629Z,94537.41
2023-08-30T19:50:37.315Z,94534.59
2023-08-30T19:55:39.385Z,94538.03
2023-08-30T20:00:41.460Z,94540.13
2023-08-30T20:05:51.634Z,94541.88
2023-08-30T20:10:53.653Z,94547.19
2023-08-30T20:16:03.828Z,94546.63
2023-08-30T20:21:12.724Z,94538.41
2023-08-30T20:26:15.167Z,94535.59
2023-08-30T20:31:17.529Z,94530.50
2023-08-30T20:36:27.209Z,94530.81
2023-08-30T20:41:33.520Z,94549.25
2023-08-30T20:46:36.968Z,94545.63
2023-08-30T20:51:39.157Z,94541.34
2023-08-30T20:56:41.550Z,94543.25
2023-08-30T21:01:43.806Z,94541.44
2023-08-30T21:06:47.219Z,94533.56
2023-08-30T21:11:49.642Z,94539.09
2023-08-30T21:16:52.004Z,94542.91
2023-08-30T21:21:54.541Z,94540.88
2023-08-30T21:26:56.720Z,94528.38
2023-08-30T21:31:58.924Z,94531.53
2023-08-30T21:37:01.051Z,94534.22
2023-08-30T21:42:03.645Z,94543.44
2023-08-30T21:47:05.911Z,94537.59
2023-08-30T21:52:08.093Z,94531.53
2023-08-30T21:57:10.536Z,94528.13
2023-08-30T22:02:12.709Z,94526.88
2023-08-30T22:13:30.224Z,94534.31
2023-08-30T22:18:32.724Z,94529.38
2023-08-30T22:23:34.816Z,94529.91
2023-08-30T22:28:36.902Z,94553.50
2023-08-30T22:33:39.033Z,94542.09
2023-08-30T22:38:41.107Z,94550.16
2023-08-30T22:43:43.259Z,94549.22
2023-08-30T22:48:45.772Z,94545.13
2023-08-30T22:53:47.946Z,94542.88
2023-08-30T22:58:51.524Z,94552.56
2023-08-30T23:03:53.763Z,94537.69
2023-08-30T23:08:56.009Z,94545.13
2023-08-30T23:13:58.005Z,94541.84
2023-08-30T23:19:00.961Z,94547.03
2023-08-30T23:24:04.149Z,94556.09
2023-08-30T23:29:09.006Z,94553.41
2023-08-30T23:34:11.239Z,94559.91
2023-08-30T23:39:16.527Z,94564.19
2023-08-30T23:44:18.664Z,94566.88
2023-08-30T23:49:20.990Z,94564.97
2023-08-30T23:54:23.136Z,94568.19
2023-08-30T23:59:25.145Z,94575.47
